Time;durP1;ratioP1;P1;durP2;ratioP2;P2;SDS_P1;SDS_P2;PMS_P1;PMS_P2;Temp;Humidity;BMP_temperature;BMP_pressure;BME280_temperature;BME280_humidity;BME280_pressure;Samples;Min_cycle;Max_cycle;Signal;HPM_P1;HPM_P2
2023/08/29 00:01:36;;;;;;;;;;;22.40;61.70;;;;;;5090982;28;19908;-58
2023/08/29 00:04:02;;;;;;;;;;;22.40;61.60;;;;;;5091967;28;19908;-56
2023/08/29 00:06:27;;;;;;;;;;;22.40;61.80;;;;;;5090707;28;19918;-56
2023/08/29 00:08:52;;;;;;;;;;;22.40;61.80;;;;;;5093330;28;19994;-56
2023/08/29 00:11:18;;;;;;;;;;;22.50;61.90;;;;;;5092897;28;19915;-56
2023/08/29 00:13:43;;;;;;;;;;;22.40;62.40;;;;;;5093021;28;20296;-56
2023/08/29 00:16:12;;;;;;;;;;;22.50;61.80;;;;;;5090911;28;19978;-55
2023/08/29 00:18:38;;;;;;;;;;;22.40;61.60;;;;;;5093108;28;19915;-56
2023/08/29 00:21:03;;;;;;;;;;;22.40;61.70;;;;;;5091826;28;19912;-56
2023/08/29 00:23:28;;;;;;;;;;;22.40;61.60;;;;;;5092931;28;19919;-56
2023/08/29 00:25:54;;;;;;;;;;;22.40;61.80;;;;;;5079195;28;20003;-56
2023/08/29 00:28:19;;;;;;;;;;;22.40;61.70;;;;;;5072891;28;19958;-55
2023/08/29 00:30:45;;;;;;;;;;;22.40;61.70;;;;;;5092994;28;19908;-57
2023/08/29 00:33:10;;;;;;;;;;;22.40;61.70;;;;;;5090446;28;19916;-56
2023/08/29 00:35:36;;;;;;;;;;;22.40;61.70;;;;;;5093236;28;20370;-56
2023/08/29 00:38:01;;;;;;;;;;;22.40;61.70;;;;;;5097106;28;19908;-56
2023/08/29 00:40:30;;;;;;;;;;;22.40;62.60;;;;;;5094847;28;19908;-56
2023/08/29 00:42:56;;;;;;;;;;;22.40;61.80;;;;;;5076726;28;19996;-56
2023/08/29 00:45:22;;;;;;;;;;;22.40;61.80;;;;;;5076714;28;19916;-56
2023/08/29 00:47:47;;;;;;;;;;;22.30;61.70;;;;;;5087248;28;19916;-56
2023/08/29 00:50:12;;;;;;;;;;;22.40;61.80;;;;;;5096551;28;19920;-56
2023/08/29 00:52:38;;;;;;;;;;;22.30;61.70;;;;;;5095244;28;19923;-56
2023/08/29 00:55:03;;;;;;;;;;;22.30;61.70;;;;;;5089930;28;19923;-56
2023/08/29 00:57:29;;;;;;;;;;;22.30;61.80;;;;;;5076178;28;20327;-56
2023/08/29 00:59:54;;;;;;;;;;;22.30;61.80;;;;;;5076297;28;19909;-56
2023/08/29 01:02:20;;;;;;;;;;;22.30;61.70;;;;;;5081524;28;19908;-56
2023/08/29 01:04:45;;;;;;;;;;;22.30;61.80;;;;;;5094814;28;19919;-56
2023/08/29 01:07:12;;;;;;;;;;;22.30;61.80;;;;;;5093931;28;19908;-55
2023/08/29 01:09:37;;;;;;;;;;;22.30;61.90;;;;;;5096413;28;19918;-58
2023/08/29 01:12:06;;;;;;;;;;;22.30;61.90;;;;;;5096315;28;19912;-56
2023/08/29 01:14:39;;;;;;;;;;;22.20;61.90;;;;;;5096310;28;19908;-56
2023/08/29 01:17:11;;;;;;;;;;;22.30;61.90;;;;;;5093950;28;19955;-56
2023/08/29 01:19:39;;;;;;;;;;;22.20;61.80;;;;;;5094978;28;19912;-56
2023/08/29 01:22:23;;;;;;;;;;;22.20;61.90;;;;;;5094286;28;19912;-56
2023/08/29 01:25:07;;;;;;;;;;;22.30;61.90;;;;;;5091603;28;19913;-55
2023/08/29 01:27:34;;;;;;;;;;;22.30;61.90;;;;;;5075816;28;19915;-56
2023/08/29 01:30:00;;;;;;;;;;;22.30;61.90;;;;;;5090462;28;19960;-56
2023/08/29 01:32:25;;;;;;;;;;;22.30;61.90;;;;;;5092621;28;19961;-56
2023/08/29 01:34:52;;;;;;;;;;;22.30;61.80;;;;;;5077812;28;20306;-56
2023/08/29 01:37:17;;;;;;;;;;;22.30;61.70;;;;;;5095887;28;19908;-56
2023/08/29 01:39:42;;;;;;;;;;;22.30;61.90;;;;;;5095902;28;19909;-55
2023/08/29 01:42:08;;;;;;;;;;;22.30;61.80;;;;;;5094395;28;19955;-56
2023/08/29 01:44:34;;;;;;;;;;;22.30;61.80;;;;;;5094808;28;19916;-55
2023/08/29 01:46:59;;;;;;;;;;;22.30;61.90;;;;;;5092841;28;19915;-56
2023/08/29 01:49:24;;;;;;;;;;;22.30;61.90;;;;;;5094799;28;20325;-56
2023/08/29 01:51:50;;;;;;;;;;;22.30;61.90;;;;;;5095654;28;19912;-55
2023/08/29 01:54:15;;;;;;;;;;;22.30;61.90;;;;;;5094119;28;19947;-56
2023/08/29 01:56:41;;;;;;;;;;;22.30;61.90;;;;;;5074536;28;19924;-56
2023/08/29 01:59:06;;;;;;;;;;;22.30;61.90;;;;;;5075354;28;19908;-56
2023/08/29 02:01:32;;;;;;;;;;;22.20;61.90;;;;;;5075288;28;19958;-56
2023/08/29 02:03:57;;;;;;;;;;;22.20;61.80;;;;;;5092367;28;20002;-56
2023/08/29 02:06:23;;;;;;;;;;;22.20;61.80;;;;;;5092578;28;19924;-55
2023/08/29 02:08:48;;;;;;;;;;;22.20;61.80;;;;;;5095226;28;19908;-56
2023/08/29 02:11:14;;;;;;;;;;;22.20;61.90;;;;;;5095160;28;20350;-55
2023/08/29 02:13:39;;;;;;;;;;;22.30;61.90;;;;;;5095062;28;19938;-56
2023/08/29 02:16:04;;;;;;;;;;;22.20;61.80;;;;;;5095116;28;19909;-56
2023/08/29 02:18:30;;;;;;;;;;;22.20;61.90;;;;;;5093079;28;19958;-56
2023/08/29 02:20:55;;;;;;;;;;;22.20;61.90;;;;;;5095084;28;19915;-55
2023/08/29 02:23:21;;;;;;;;;;;22.20;61.90;;;;;;5095082;28;19915;-56
2023/08/29 02:25:46;;;;;;;;;;;22.20;61.80;;;;;;5081104;28;19912;-56
2023/08/29 02:28:12;;;;;;;;;;;22.20;61.80;;;;;;5074819;28;19948;-56
2023/08/29 02:30:38;;;;;;;;;;;22.20;61.90;;;;;;5090945;28;20364;-56
2023/08/29 02:33:03;;;;;;;;;;;22.20;61.70;;;;;;5092537;28;19927;-56
2023/08/29 02:35:29;;;;;;;;;;;22.20;61.80;;;;;;5094708;28;19908;-56
2023/08/29 02:37:54;;;;;;;;;;;22.20;61.80;;;;;;5094977;28;19908;-56
2023/08/29 02:40:19;;;;;;;;;;;22.20;61.80;;;;;;5094618;28;19957;-55
2023/08/29 02:42:45;;;;;;;;;;;22.20;61.80;;;;;;5090580;28;19966;-56
2023/08/29 02:45:11;;;;;;;;;;;22.20;61.80;;;;;;5094635;28;19955;-56
2023/08/29 02:47:36;;;;;;;;;;;22.10;61.70;;;;;;5091579;28;19912;-55
2023/08/29 02:50:03;;;;;;;;;;;22.20;61.90;;;;;;5094272;28;19926;-56
2023/08/29 02:52:29;;;;;;;;;;;22.20;61.90;;;;;;5093149;28;19919;-56
2023/08/29 02:54:54;;;;;;;;;;;22.20;61.90;;;;;;5089028;28;20262;-56
2023/08/29 02:57:20;;;;;;;;;;;22.20;61.90;;;;;;5078145;28;19912;-56
2023/08/29 02:59:45;;;;;;;;;;;22.20;61.80;;;;;;5094016;28;19912;-56
2023/08/29 03:02:10;;;;;;;;;;;22.20;61.90;;;;;;5091941;28;19921;-56
2023/08/29 03:04:36;;;;;;;;;;;22.10;61.80;;;;;;5092936;28;19986;-56
2023/08/29 03:07:04;;;;;;;;;;;22.10;61.80;;;;;;5091506;28;20298;-56
2023/08/29 03:09:29;;;;;;;;;;;22.10;61.80;;;;;;5094234;28;19975;-56
2023/08/29 03:11:55;;;;;;;;;;;22.10;61.80;;;;;;5094061;28;19956;-57
2023/08/29 03:14:20;;;;;;;;;;;22.10;61.80;;;;;;5094026;28;20428;-56
2023/08/29 03:16:46;;;;;;;;;;;22.10;61.80;;;;;;5091960;28;20383;-56
2023/08/29 03:19:11;;;;;;;;;;;22.10;61.70;;;;;;5094281;28;19912;-56
2023/08/29 03:21:37;;;;;;;;;;;22.10;61.60;;;;;;5093887;28;19915;-55
2023/08/29 03:24:03;;;;;;;;;;;22.10;61.80;;;;;;5092628;28;20348;-56
2023/08/29 03:26:28;;;;;;;;;;;22.10;61.80;;;;;;5075157;28;19969;-57
2023/08/29 03:28:53;;;;;;;;;;;22.10;61.80;;;;;;5077026;28;20421;-56
2023/08/29 03:31:19;;;;;;;;;;;22.10;61.80;;;;;;5081939;28;20406;-55
2023/08/29 03:33:45;;;;;;;;;;;22.00;61.70;;;;;;5093676;28;20272;-55
2023/08/29 03:36:10;;;;;;;;;;;22.00;61.80;;;;;;5093551;28;19953;-56
2023/08/29 03:38:36;;;;;;;;;;;22.00;61.80;;;;;;5093597;28;19908;-55
2023/08/29 03:41:03;;;;;;;;;;;22.00;61.70;;;;;;5090763;28;19981;-55
2023/08/29 03:43:30;;;;;;;;;;;22.00;61.90;;;;;;5093457;28;20364;-55
2023/08/29 03:45:59;;;;;;;;;;;22.00;61.80;;;;;;5091118;28;19926;-55
2023/08/29 03:48:24;;;;;;;;;;;22.10;61.80;;;;;;5092207;28;19912;-55
2023/08/29 03:50:49;;;;;;;;;;;22.00;61.70;;;;;;5093143;28;19943;-55
2023/08/29 03:53:15;;;;;;;;;;;22.00;61.80;;;;;;5091844;28;19916;-54
2023/08/29 03:55:40;;;;;;;;;;;22.00;61.90;;;;;;5081321;28;19908;-55
2023/08/29 03:58:06;;;;;;;;;;;22.00;61.90;;;;;;5073125;28;19915;-55
2023/08/29 04:00:32;;;;;;;;;;;22.00;61.70;;;;;;5073685;28;19969;-55
2023/08/29 04:02:59;;;;;;;;;;;22.00;61.80;;;;;;5093220;28;19962;-55
2023/08/29 04:05:25;;;;;;;;;;;22.00;61.80;;;;;;5093136;28;19958;-55
2023/08/29 04:07:50;;;;;;;;;;;22.00;61.80;;;;;;5093381;28;19908;-55
2023/08/29 04:10:16;;;;;;;;;;;22.00;61.80;;;;;;5092269;28;19912;-55
2023/08/29 04:12:41;;;;;;;;;;;22.00;61.90;;;;;;5071516;28;19995;-55
2023/08/29 04:15:07;;;;;;;;;;;21.90;61.90;;;;;;5072891;28;19908;-55
2023/08/29 04:17:32;;;;;;;;;;;21.90;61.90;;;;;;5088793;28;19916;-55
2023/08/29 04:19:59;;;;;;;;;;;22.00;62.00;;;;;;5092983;28;19931;-55
2023/08/29 04:22:25;;;;;;;;;;;21.90;61.90;;;;;;5090928;28;19916;-55
2023/08/29 04:24:50;;;;;;;;;;;21.90;61.90;;;;;;5087981;28;19978;-55
2023/08/29 04:27:16;;;;;;;;;;;21.90;61.80;;;;;;5072667;28;19908;-55
2023/08/29 04:29:41;;;;;;;;;;;21.90;61.70;;;;;;5072702;28;19913;-55
2023/08/29 04:32:07;;;;;;;;;;;21.90;61.80;;;;;;5083177;28;20287;-55
2023/08/29 04:34:32;;;;;;;;;;;21.90;61.90;;;;;;5092822;28;19919;-55
2023/08/29 04:36:58;;;;;;;;;;;21.90;61.90;;;;;;5092902;28;19908;-55
2023/08/29 04:39:24;;;;;;;;;;;21.90;62.00;;;;;;5092836;28;19919;-55
2023/08/29 04:41:50;;;;;;;;;;;21.80;61.80;;;;;;5090408;28;19912;-55
2023/08/29 04:44:15;;;;;;;;;;;21.90;62.00;;;;;;5092820;28;20477;-55
2023/08/29 04:46:41;;;;;;;;;;;21.90;61.80;;;;;;5090513;28;19920;-55
2023/08/29 04:49:06;;;;;;;;;;;21.90;61.90;;;;;;5092620;28;19923;-55
2023/08/29 04:51:34;;;;;;;;;;;21.80;61.80;;;;;;5092741;28;19908;-55
2023/08/29 04:54:00;;;;;;;;;;;21.80;61.80;;;;;;5091279;28;19913;-54
2023/08/29 04:56:25;;;;;;;;;;;21.80;61.70;;;;;;5074554;28;19908;-55
2023/08/29 04:58:50;;;;;;;;;;;21.80;61.60;;;;;;5072407;28;20418;-55
2023/08/29 05:01:16;;;;;;;;;;;21.80;61.70;;;;;;5071777;28;20426;-54
2023/08/29 05:03:42;;;;;;;;;;;21.80;61.70;;;;;;5092578;28;20276;-55
2023/08/29 05:06:07;;;;;;;;;;;21.80;61.80;;;;;;5092580;28;19912;-56
2023/08/29 05:08:34;;;;;;;;;;;21.80;61.80;;;;;;5089904;28;19916;-55
2023/08/29 05:11:00;;;;;;;;;;;21.80;61.70;;;;;;5092591;28;20330;-55
2023/08/29 05:13:26;;;;;;;;;;;21.80;61.70;;;;;;5092311;28;19937;-55
2023/08/29 05:15:51;;;;;;;;;;;21.80;61.70;;;;;;5092545;28;19908;-55
2023/08/29 05:18:17;;;;;;;;;;;21.80;61.80;;;;;;5090005;28;20075;-55
2023/08/29 05:20:42;;;;;;;;;;;21.80;61.80;;;;;;5092523;28;19908;-55
2023/08/29 05:23:08;;;;;;;;;;;21.80;61.80;;;;;;5095033;28;19908;-55
2023/08/29 05:25:33;;;;;;;;;;;21.80;61.60;;;;;;5085039;28;20330;-55
2023/08/29 05:27:59;;;;;;;;;;;21.80;61.60;;;;;;5087976;28;19912;-55
2023/08/29 05:30:24;;;;;;;;;;;21.80;61.80;;;;;;5096062;28;19916;-55
2023/08/29 05:32:50;;;;;;;;;;;21.80;61.80;;;;;;5093588;28;19920;-55
2023/08/29 05:35:15;;;;;;;;;;;21.80;61.60;;;;;;5094842;28;19914;-55
2023/08/29 05:37:40;;;;;;;;;;;21.80;61.70;;;;;;5093632;28;19912;-55
2023/08/29 05:40:06;;;;;;;;;;;21.80;61.70;;;;;;5093635;28;19912;-55
2023/08/29 05:42:32;;;;;;;;;;;21.80;61.90;;;;;;5094512;28;19908;-56
2023/08/29 05:44:57;;;;;;;;;;;21.80;62.00;;;;;;5095948;28;19940;-58
2023/08/29 05:47:23;;;;;;;;;;;21.70;61.90;;;;;;5092988;28;19912;-55
2023/08/29 05:49:48;;;;;;;;;;;21.70;61.90;;;;;;5095383;28;19967;-56
2023/08/29 05:52:13;;;;;;;;;;;21.70;61.90;;;;;;5095150;28;20368;-55
2023/08/29 05:54:39;;;;;;;;;;;21.70;62.00;;;;;;5088638;28;20268;-55
2023/08/29 05:57:05;;;;;;;;;;;21.70;61.90;;;;;;5079919;28;20280;-56
2023/08/29 05:59:30;;;;;;;;;;;21.70;61.90;;;;;;5095387;28;19908;-55
2023/08/29 06:01:56;;;;;;;;;;;21.70;61.80;;;;;;5095397;28;19908;-55
2023/08/29 06:04:21;;;;;;;;;;;21.70;62.60;;;;;;5093071;28;19916;-55
2023/08/29 06:06:50;;;;;;;;;;;21.70;61.90;;;;;;5095118;28;20351;-55
2023/08/29 06:09:15;;;;;;;;;;;21.70;61.90;;;;;;5095225;28;19915;-55
2023/08/29 06:11:41;;;;;;;;;;;21.70;62.90;;;;;;5095168;28;20356;-55
2023/08/29 06:14:06;;;;;;;;;;;21.70;62.00;;;;;;5077019;28;20015;-55
2023/08/29 06:16:32;;;;;;;;;;;21.70;62.00;;;;;;5076450;28;19981;-55
2023/08/29 06:18:57;;;;;;;;;;;21.70;62.10;;;;;;5095005;28;19908;-55
2023/08/29 06:21:22;;;;;;;;;;;21.60;62.00;;;;;;5095001;28;19916;-55
2023/08/29 06:23:48;;;;;;;;;;;21.70;62.00;;;;;;5095099;28;19966;-55
2023/08/29 06:26:15;;;;;;;;;;;21.60;62.00;;;;;;5074990;28;19919;-55
2023/08/29 06:28:41;;;;;;;;;;;21.60;62.10;;;;;;5074551;28;19908;-55
2023/08/29 06:31:09;;;;;;;;;;;21.70;62.20;;;;;;5074494;28;19927;-55
2023/08/29 06:33:35;;;;;;;;;;;21.70;62.10;;;;;;5090680;28;19966;-55
2023/08/29 06:36:01;;;;;;;;;;;21.70;62.20;;;;;;5094661;28;19919;-55
2023/08/29 06:38:26;;;;;;;;;;;21.70;62.20;;;;;;5093105;28;20283;-55
2023/08/29 06:40:55;;;;;;;;;;;21.70;62.50;;;;;;5094841;28;19912;-55
2023/08/29 06:43:21;;;;;;;;;;;21.70;62.40;;;;;;5094323;28;19908;-55
2023/08/29 06:45:47;;;;;;;;;;;21.70;62.40;;;;;;5094496;28;19908;-55
2023/08/29 06:48:12;;;;;;;;;;;21.70;62.20;;;;;;5091134;28;19916;-55
2023/08/29 06:50:37;;;;;;;;;;;21.70;62.20;;;;;;5094159;28;19920;-55
2023/08/29 06:53:03;;;;;;;;;;;21.70;62.40;;;;;;5094285;28;20006;-55
2023/08/29 06:55:31;;;;;;;;;;;21.70;62.30;;;;;;5084053;28;19916;-55
2023/08/29 06:57:57;;;;;;;;;;;21.70;62.40;;;;;;5088418;28;19912;-55
2023/08/29 07:00:23;;;;;;;;;;;21.70;62.50;;;;;;5087368;28;20419;-55
2023/08/29 07:02:48;;;;;;;;;;;21.70;62.60;;;;;;5091989;28;19965;-55
2023/08/29 07:05:14;;;;;;;;;;;21.70;62.60;;;;;;5094695;28;19920;-55
2023/08/29 07:07:40;;;;;;;;;;;21.70;62.60;;;;;;5094279;28;20070;-55
2023/08/29 07:10:06;;;;;;;;;;;21.70;62.60;;;;;;5080647;28;19937;-55
2023/08/29 07:12:31;;;;;;;;;;;21.70;62.70;;;;;;5073770;28;19912;-55
2023/08/29 07:14:57;;;;;;;;;;;21.70;62.90;;;;;;5073597;28;20287;-55
2023/08/29 07:17:22;;;;;;;;;;;21.70;62.60;;;;;;5074341;28;20406;-55
2023/08/29 07:19:48;;;;;;;;;;;21.70;62.60;;;;;;5094042;28;19908;-55
2023/08/29 07:22:13;;;;;;;;;;;21.70;62.70;;;;;;5093997;28;19908;-55
2023/08/29 07:24:39;;;;;;;;;;;21.70;62.70;;;;;;5090497;28;19915;-55
2023/08/29 07:27:06;;;;;;;;;;;21.60;62.70;;;;;;5071868;28;19912;-56
2023/08/29 07:29:31;;;;;;;;;;;21.70;62.90;;;;;;5085475;28;19912;-55
2023/08/29 07:31:57;;;;;;;;;;;21.70;62.80;;;;;;5073460;28;19935;-55
2023/08/29 07:34:23;;;;;;;;;;;21.70;63.00;;;;;;5087433;28;19918;-55
2023/08/29 07:36:48;;;;;;;;;;;21.70;63.00;;;;;;5093659;28;19908;-55
2023/08/29 07:39:16;;;;;;;;;;;21.70;62.90;;;;;;5092038;28;20387;-56
2023/08/29 07:41:41;;;;;;;;;;;21.70;62.90;;;;;;5093641;28;19931;-56
2023/08/29 07:44:07;;;;;;;;;;;21.60;62.90;;;;;;5093574;28;20368;-56
2023/08/29 07:46:32;;;;;;;;;;;21.60;62.80;;;;;;5092405;28;19999;-55
2023/08/29 07:48:58;;;;;;;;;;;21.60;62.90;;;;;;5072953;28;19927;-56
2023/08/29 07:51:23;;;;;;;;;;;21.70;63.00;;;;;;5093556;28;20394;-56
2023/08/29 07:53:49;;;;;;;;;;;21.70;62.90;;;;;;5093214;28;19912;-55
2023/08/29 07:56:14;;;;;;;;;;;21.70;63.10;;;;;;5076511;28;19912;-56
2023/08/29 07:58:40;;;;;;;;;;;21.70;63.20;;;;;;5080527;28;19912;-56
2023/08/29 08:01:05;;;;;;;;;;;21.70;63.20;;;;;;5093038;28;19908;-56
2023/08/29 08:03:31;;;;;;;;;;;21.70;63.00;;;;;;5090547;28;19912;-56
2023/08/29 08:05:56;;;;;;;;;;;21.70;63.10;;;;;;5092988;28;20379;-56
2023/08/29 08:08:22;;;;;;;;;;;21.70;63.20;;;;;;5093064;28;19977;-56
2023/08/29 08:10:47;;;;;;;;;;;21.70;63.10;;;;;;5093047;28;19964;-56
2023/08/29 08:13:13;;;;;;;;;;;21.70;63.20;;;;;;5090511;28;19916;-56
2023/08/29 08:15:38;;;;;;;;;;;21.70;63.30;;;;;;5082441;28;19912;-56
2023/08/29 08:18:04;;;;;;;;;;;21.70;63.30;;;;;;5090971;28;19963;-56
2023/08/29 08:20:29;;;;;;;;;;;21.70;63.30;;;;;;5093016;28;19912;-55
2023/08/29 08:22:55;;;;;;;;;;;21.70;63.30;;;;;;5091697;28;19912;-56
2023/08/29 08:25:20;;;;;;;;;;;21.70;63.40;;;;;;5082750;28;19912;-56
2023/08/29 08:27:45;;;;;;;;;;;21.70;63.40;;;;;;5072562;28;20430;-56
2023/08/29 08:30:11;;;;;;;;;;;21.70;63.40;;;;;;5081212;28;19918;-56
2023/08/29 08:32:36;;;;;;;;;;;21.70;63.40;;;;;;5092741;28;20007;-56
2023/08/29 08:35:04;;;;;;;;;;;21.70;63.40;;;;;;5090788;28;19923;-56
2023/08/29 08:37:31;;;;;;;;;;;21.70;63.70;;;;;;5092775;28;19915;-56
2023/08/29 08:39:57;;;;;;;;;;;21.70;63.50;;;;;;5090100;28;20012;-55
2023/08/29 08:42:22;;;;;;;;;;;21.70;63.70;;;;;;5092794;28;19952;-56
2023/08/29 08:44:48;;;;;;;;;;;21.70;63.60;;;;;;5091713;28;19908;-56
2023/08/29 08:47:13;;;;;;;;;;;21.70;63.70;;;;;;5092827;28;19978;-56
2023/08/29 08:49:39;;;;;;;;;;;21.70;63.80;;;;;;5090344;28;20303;-56
2023/08/29 08:52:05;;;;;;;;;;;21.70;63.80;;;;;;5091374;28;19916;-55
2023/08/29 08:54:30;;;;;;;;;;;21.70;63.80;;;;;;5090392;28;19919;-56
2023/08/29 08:56:57;;;;;;;;;;;21.70;63.80;;;;;;5073500;28;19909;-56
2023/08/29 08:59:26;;;;;;;;;;;21.70;63.80;;;;;;5082071;28;20000;-56
2023/08/29 09:01:51;;;;;;;;;;;21.70;63.60;;;;;;5096534;28;19939;-56
2023/08/29 09:04:17;;;;;;;;;;;21.70;63.70;;;;;;5093383;28;19955;-55
2023/08/29 09:06:42;;;;;;;;;;;21.70;63.80;;;;;;5093902;28;19998;-56
2023/08/29 09:09:23;;;;;;;;;;;21.70;63.70;;;;;;5096396;28;19912;-56
2023/08/29 09:11:55;;;;;;;;;;;21.70;63.90;;;;;;5096365;28;19934;-56
2023/08/29 09:14:20;;;;;;;;;;;21.60;63.80;;;;;;5096224;28;20323;-56
2023/08/29 09:16:46;;;;;;;;;;;21.70;64.00;;;;;;5093743;28;19955;-56
2023/08/29 09:19:13;;;;;;;;;;;21.70;64.20;;;;;;5093889;28;19918;-56
2023/08/29 09:21:41;;;;;;;;;;;21.70;64.10;;;;;;5096201;28;19909;-56
2023/08/29 09:24:09;;;;;;;;;;;21.70;64.20;;;;;;5096385;28;19908;-56
2023/08/29 09:26:34;;;;;;;;;;;21.70;63.90;;;;;;5075468;28;19947;-56
2023/08/29 09:29:00;;;;;;;;;;;21.70;63.90;;;;;;5079996;28;20045;-55
2023/08/29 09:31:25;;;;;;;;;;;21.70;64.10;;;;;;5094742;28;20002;-56
2023/08/29 09:33:51;;;;;;;;;;;21.70;64.00;;;;;;5093424;28;20019;-56
2023/08/29 09:36:16;;;;;;;;;;;21.70;64.00;;;;;;5095918;28;19924;-55
2023/08/29 09:38:42;;;;;;;;;;;21.70;64.00;;;;;;5094434;28;20356;-56
2023/08/29 09:41:16;;;;;;;;;;;21.70;63.90;;;;;;5095616;28;19908;-56
2023/08/29 09:43:45;;;;;;;;;;;21.70;64.00;;;;;;5092365;28;19992;-56
2023/08/29 09:46:11;;;;;;;;;;;21.70;64.90;;;;;;5095845;28;19915;-56
2023/08/29 09:48:38;;;;;;;;;;;21.70;64.00;;;;;;5093526;28;19908;-56
2023/08/29 09:51:03;;;;;;;;;;;21.70;63.90;;;;;;5095848;28;19942;-56
2023/08/29 09:53:29;;;;;;;;;;;21.70;64.10;;;;;;5093970;28;19912;-58
2023/08/29 09:56:07;;;;;;;;;;;21.70;64.10;;;;;;5090626;28;20019;-56
2023/08/29 09:58:33;;;;;;;;;;;21.70;64.20;;;;;;5094287;28;19994;-56
2023/08/29 10:00:59;;;;;;;;;;;21.70;64.20;;;;;;5095451;28;20357;-56
2023/08/29 10:03:25;;;;;;;;;;;21.70;64.30;;;;;;5095324;28;19981;-56
2023/08/29 10:05:50;;;;;;;;;;;21.70;64.20;;;;;;5090915;28;19912;-56
2023/08/29 10:08:34;;;;;;;;;;;21.70;64.30;;;;;;5090471;28;19999;-55
2023/08/29 10:11:00;;;;;;;;;;;21.70;64.30;;;;;;5094107;28;19912;-56
2023/08/29 10:13:26;;;;;;;;;;;21.70;64.60;;;;;;5094940;28;20407;-56
2023/08/29 10:15:51;;;;;;;;;;;21.70;64.60;;;;;;5075739;28;20323;-56
2023/08/29 10:18:17;;;;;;;;;;;21.70;64.40;;;;;;5095181;28;19915;-56
2023/08/29 10:20:43;;;;;;;;;;;21.70;64.40;;;;;;5092876;28;19912;-55
2023/08/29 10:23:09;;;;;;;;;;;21.80;64.30;;;;;;5095207;28;19908;-56
2023/08/29 10:25:41;;;;;;;;;;;21.90;64.30;;;;;;5077320;28;20339;-56
2023/08/29 10:28:06;;;;;;;;;;;22.00;64.50;;;;;;5074709;28;19961;-56
2023/08/29 10:30:32;;;;;;;;;;;21.90;64.10;;;;;;5074720;28;19908;-56
2023/08/29 10:32:58;;;;;;;;;;;21.90;64.20;;;;;;5074508;28;19920;-56
2023/08/29 10:35:24;;;;;;;;;;;21.80;64.20;;;;;;5076249;28;20397;-56
2023/08/29 10:37:50;;;;;;;;;;;21.80;64.50;;;;;;5092458;28;19951;-56
2023/08/29 10:40:17;;;;;;;;;;;21.80;64.40;;;;;;5094671;28;19908;-56
2023/08/29 10:42:49;;;;;;;;;;;21.90;64.50;;;;;;5094585;28;19909;-56
2023/08/29 10:45:15;;;;;;;;;;;22.00;64.40;;;;;;5086087;28;19916;-56
2023/08/29 10:47:46;;;;;;;;;;;22.00;64.10;;;;;;5054258;28;19932;-55
2023/08/29 10:50:15;;;;;;;;;;;22.10;64.20;;;;;;5064907;28;19967;-56
2023/08/29 10:52:41;;;;;;;;;;;22.10;64.00;;;;;;5094438;28;20279;-56
2023/08/29 10:55:21;;;;;;;;;;;22.10;64.00;;;;;;5087237;28;19908;-56
2023/08/29 10:57:46;;;;;;;;;;;22.00;63.70;;;;;;5080464;28;19912;-56
2023/08/29 11:00:16;;;;;;;;;;;22.00;63.90;;;;;;5094479;28;20078;-56
2023/08/29 11:02:43;;;;;;;;;;;22.10;64.40;;;;;;5094439;28;19978;-56
2023/08/29 11:05:09;;;;;;;;;;;22.10;64.60;;;;;;5091989;28;19970;-56
2023/08/29 11:07:35;;;;;;;;;;;22.20;63.70;;;;;;5094199;28;20273;-56
2023/08/29 11:10:22;;;;;;;;;;;22.20;64.00;;;;;;5094061;28;19956;-56
2023/08/29 11:13:06;;;;;;;;;;;22.30;64.00;;;;;;5094079;28;19916;-58
2023/08/29 11:15:46;;;;;;;;;;;22.20;63.80;;;;;;5086587;28;19912;-55
2023/08/29 11:18:24;;;;;;;;;;;22.20;63.70;;;;;;5086435;28;20139;-57
2023/08/29 11:20:49;;;;;;;;;;;22.30;63.80;;;;;;5091444;28;19920;-56
2023/08/29 11:23:15;;;;;;;;;;;22.30;63.60;;;;;;5092653;28;19912;-55
2023/08/29 11:25:40;;;;;;;;;;;22.30;63.70;;;;;;5082097;28;19920;-55
2023/08/29 11:28:06;;;;;;;;;;;22.40;63.20;;;;;;5091259;28;20356;-56
2023/08/29 11:30:31;;;;;;;;;;;22.30;63.40;;;;;;5091574;28;20360;-56
2023/08/29 11:32:57;;;;;;;;;;;22.20;63.70;;;;;;5093755;28;19912;-56
2023/08/29 11:35:22;;;;;;;;;;;22.20;63.50;;;;;;5091442;28;20438;-56
2023/08/29 11:37:48;;;;;;;;;;;22.20;63.30;;;;;;5093668;28;19908;-56
2023/08/29 11:40:13;;;;;;;;;;;22.20;63.80;;;;;;5089823;28;19912;-55
2023/08/29 11:42:39;;;;;;;;;;;22.10;63.10;;;;;;5092955;28;19908;-56
2023/08/29 11:45:08;;;;;;;;;;;22.10;63.10;;;;;;5093603;28;20034;-56
2023/08/29 11:47:33;;;;;;;;;;;22.10;63.00;;;;;;5092442;28;19915;-56
2023/08/29 11:50:04;;;;;;;;;;;22.10;63.00;;;;;;5093338;28;19969;-55
2023/08/29 11:52:30;;;;;;;;;;;22.10;62.70;;;;;;5097922;28;19920;-56
2023/08/29 11:54:56;;;;;;;;;;;22.10;62.90;;;;;;5087724;28;20003;-55
2023/08/29 11:57:22;;;;;;;;;;;22.10;63.10;;;;;;5073092;28;19916;-56
2023/08/29 11:59:48;;;;;;;;;;;22.20;62.60;;;;;;5073140;28;19912;-56
2023/08/29 12:02:14;;;;;;;;;;;22.30;62.20;;;;;;5071781;28;19908;-56
2023/08/29 12:04:41;;;;;;;;;;;22.30;62.40;;;;;;5090017;28;19913;-56
2023/08/29 12:07:10;;;;;;;;;;;22.30;63.00;;;;;;5090402;28;19912;-56
2023/08/29 12:09:37;;;;;;;;;;;22.30;62.10;;;;;;5093169;28;19912;-56
2023/08/29 12:12:04;;;;;;;;;;;22.40;62.30;;;;;;5091719;28;19912;-56
2023/08/29 12:14:30;;;;;;;;;;;22.40;62.30;;;;;;5091499;28;20280;-56
2023/08/29 12:16:55;;;;;;;;;;;22.30;62.60;;;;;;5092964;28;19909;-56
2023/08/29 12:19:21;;;;;;;;;;;22.30;62.10;;;;;;5091787;28;19908;-56
2023/08/29 12:21:53;;;;;;;;;;;22.30;61.70;;;;;;5090746;28;20277;-56
2023/08/29 12:24:18;;;;;;;;;;;22.30;62.10;;;;;;5091394;28;19974;-56
2023/08/29 12:26:44;;;;;;;;;;;22.30;61.40;;;;;;5076483;28;19922;-56
2023/08/29 12:29:09;;;;;;;;;;;22.30;61.80;;;;;;5092881;28;19970;-56
2023/08/29 12:31:34;;;;;;;;;;;22.30;61.70;;;;;;5091590;28;20295;-55
2023/08/29 12:34:00;;;;;;;;;;;22.20;61.80;;;;;;5097058;28;19991;-56
2023/08/29 12:36:25;;;;;;;;;;;22.20;61.30;;;;;;5092059;28;19913;-56
2023/08/29 12:38:51;;;;;;;;;;;22.30;61.10;;;;;;5094103;28;19918;-56
2023/08/29 12:41:17;;;;;;;;;;;22.30;61.60;;;;;;5097193;28;20360;-56
2023/08/29 12:43:43;;;;;;;;;;;22.30;61.60;;;;;;5097115;28;19908;-56
2023/08/29 12:46:09;;;;;;;;;;;22.30;61.20;;;;;;5096166;28;20287;-56
2023/08/29 12:48:35;;;;;;;;;;;22.30;61.00;;;;;;5096232;28;19956;-56
2023/08/29 12:51:00;;;;;;;;;;;22.30;60.60;;;;;;5095881;28;20397;-56
2023/08/29 12:53:27;;;;;;;;;;;22.30;61.00;;;;;;5094486;28;19916;-56
2023/08/29 12:55:52;;;;;;;;;;;22.30;60.80;;;;;;5083136;28;19970;-55
2023/08/29 12:58:18;;;;;;;;;;;22.30;60.80;;;;;;5076242;28;19913;-56
2023/08/29 13:00:44;;;;;;;;;;;22.30;61.20;;;;;;5075925;28;20322;-56
2023/08/29 13:03:09;;;;;;;;;;;22.30;60.90;;;;;;5076323;28;19916;-56
2023/08/29 13:05:35;;;;;;;;;;;22.30;60.80;;;;;;5076336;28;19916;-56
2023/08/29 13:08:00;;;;;;;;;;;22.30;60.80;;;;;;5084142;28;20002;-56
2023/08/29 13:10:25;;;;;;;;;;;22.20;60.30;;;;;;5094149;28;19919;-56
2023/08/29 13:12:51;;;;;;;;;;;22.20;60.30;;;;;;5085581;28;19963;-56
2023/08/29 13:15:18;;;;;;;;;;;22.30;60.50;;;;;;5096258;28;19908;-56
2023/08/29 13:17:45;;;;;;;;;;;22.30;61.00;;;;;;5096454;28;19915;-56
2023/08/29 13:20:10;;;;;;;;;;;22.30;60.70;;;;;;5096331;28;19912;-56
2023/08/29 13:22:39;;;;;;;;;;;22.30;61.00;;;;;;5093908;28;19916;-56
2023/08/29 13:25:05;;;;;;;;;;;22.30;61.10;;;;;;5089287;28;19909;-56
2023/08/29 13:27:31;;;;;;;;;;;22.40;61.10;;;;;;5075857;28;19916;-56
2023/08/29 13:29:56;;;;;;;;;;;22.50;60.90;;;;;;5075863;28;19909;-56
2023/08/29 13:32:22;;;;;;;;;;;22.50;60.40;;;;;;5079036;28;19920;-56
2023/08/29 13:34:47;;;;;;;;;;;22.50;60.20;;;;;;5093604;28;19916;-56
2023/08/29 13:37:13;;;;;;;;;;;22.50;60.60;;;;;;5093404;28;20431;-56
2023/08/29 13:39:41;;;;;;;;;;;22.50;60.30;;;;;;5092172;28;20221;-56
2023/08/29 13:42:07;;;;;;;;;;;22.40;59.90;;;;;;5092139;28;19913;-56
2023/08/29 13:44:32;;;;;;;;;;;22.40;59.80;;;;;;5095625;28;19908;-56
2023/08/29 13:46:58;;;;;;;;;;;22.40;60.00;;;;;;5095703;28;20420;-56
2023/08/29 13:49:23;;;;;;;;;;;22.40;60.20;;;;;;5095326;28;20380;-56
2023/08/29 13:51:49;;;;;;;;;;;22.40;60.50;;;;;;5093301;28;20371;-56
2023/08/29 13:54:14;;;;;;;;;;;22.40;59.80;;;;;;5092756;28;20105;-57
2023/08/29 13:56:43;;;;;;;;;;;22.40;60.50;;;;;;5075286;28;20381;-56
2023/08/29 13:59:09;;;;;;;;;;;22.40;60.10;;;;;;5075026;28;19916;-55
2023/08/29 14:01:34;;;;;;;;;;;22.50;59.80;;;;;;5075140;28;19916;-56
2023/08/29 14:04:00;;;;;;;;;;;22.50;58.90;;;;;;5074836;28;19915;-56
2023/08/29 14:06:25;;;;;;;;;;;22.60;58.80;;;;;;5080705;28;19923;-55
2023/08/29 14:08:51;;;;;;;;;;;22.60;59.40;;;;;;5094147;28;19908;-56
2023/08/29 14:11:17;;;;;;;;;;;22.60;59.70;;;;;;5094469;28;19908;-56